Airfield :
LOGIN :

Register | Disclaimer

   EN    FR    IT 

 










Legend :    VFR   Marginal VFR   IFR   Intensive IFR   Very Intensive IFR
Visi :
Ceiling :
>= 8 km
>= 3000ft
5 to 8 km
1000 to 3000 ft
1500m to 5 km
500 to 1000 ft
800 to 1500m
200 to 500 ft
< 800m
< 200 ft
Symbols :   Thunderstorms  Fog  Heavy snow  Heavy precipitations  Wind > 20 kt
SIGMETs :     Misc.  Thunderstorms  Icing  Turbulence  Mountain Waves  Volcanic Ashes






- Airport Elevation : 359 ft
- IATA code : BVA


LFOB - Beauvais

CURRENT METAR :
  • 200800Z AUTO 29008KT 9999 FEW046 OVC060 02/01 Q1032 NOSIG

EXPIRED METARs :
  • 200730Z AUTO 29006KT 9999 FEW044 OVC060 01/01 Q1032 NOSIG
  • 200700Z AUTO 31006KT 9999 FEW041 OVC058 01/01 Q1031 NOSIG
  • 200630Z AUTO 29007KT 9999 FEW042 BKN056 01/00 Q1031 NOSIG
  • 200600Z AUTO 30007KT CAVOK M01/M02 Q1031 NOSIG

TAF TAF LFOB
Valid from the 20 at 06:00 until the 21 at 06:00 UTC


200500Z 2006/2106 34008KT 9999 SCT020
PROB30
TEMPO 2012/2024 4000 SHRA BKN013
PROB30 2100/2106 3000 BR
ATIS : +33 3 44 11 49 28



MET'MAP, your aeronautical weather chart ! - Copyright ORBIFLY December 2007 - Disclaimer

ORBIFLY MET'MAP TEAM :

Programming & Development : Alexandra Zaïnal
Concept & original design : Baudouin d'Aumeries
Assistance for programming : Marc-Olivier Méhu
Technical & hardware support : Manuel Goepfert

Contact : metmap@orbifly.com




SOURCES & CREDITS :

   NOAA